createdAt,value
2019-03-24T00:00:48.952Z,99.90
2019-03-24T00:03:20.237Z,99.90
2019-03-24T00:05:53.089Z,99.90
2019-03-24T00:08:28.102Z,99.90
2019-03-24T00:10:58.767Z,99.90
2019-03-24T00:13:29.481Z,99.90
2019-03-24T00:16:00.459Z,99.90
2019-03-24T00:18:36.833Z,99.90
2019-03-24T00:21:05.052Z,99.90
2019-03-24T00:23:38.300Z,99.90
2019-03-24T00:26:15.176Z,99.90
2019-03-24T00:28:53.189Z,99.90
2019-03-24T00:31:20.185Z,99.90
2019-03-24T00:33:51.453Z,99.90
2019-03-24T00:36:22.014Z,99.90
2019-03-24T00:38:52.720Z,99.90
2019-03-24T00:41:23.825Z,99.90
2019-03-24T00:43:54.860Z,99.90
2019-03-24T00:46:25.336Z,99.90
2019-03-24T00:48:58.583Z,99.90
2019-03-24T00:51:29.026Z,99.90
2019-03-24T00:53:59.973Z,99.90
2019-03-24T00:56:30.790Z,99.90
2019-03-24T00:59:03.054Z,99.90
2019-03-24T01:01:33.654Z,99.90
2019-03-24T01:04:04.213Z,99.90
2019-03-24T01:06:34.792Z,99.90
2019-03-24T01:09:13.450Z,99.90
2019-03-24T01:11:44.040Z,99.90
2019-03-24T01:14:17.369Z,99.90
2019-03-24T01:16:47.797Z,99.90
2019-03-24T01:19:18.304Z,99.90
2019-03-24T01:21:49.000Z,99.90
2019-03-24T01:24:20.665Z,99.90
2019-03-24T01:26:52.581Z,99.90
2019-03-24T01:29:24.080Z,99.90
2019-03-24T01:31:54.710Z,99.90
2019-03-24T01:34:26.129Z,99.90
2019-03-24T01:36:59.742Z,99.90
2019-03-24T01:39:33.894Z,99.90
2019-03-24T01:42:06.020Z,99.90
2019-03-24T01:44:39.515Z,99.90
2019-03-24T01:47:13.797Z,99.90
2019-03-24T01:49:47.628Z,99.90
2019-03-24T01:52:22.868Z,99.90
2019-03-24T01:54:53.378Z,99.90
2019-03-24T01:57:27.972Z,99.90
2019-03-24T01:59:58.727Z,99.90
2019-03-24T02:02:31.743Z,99.90
2019-03-24T02:05:02.049Z,99.90
2019-03-24T02:07:32.540Z,99.90
2019-03-24T02:10:04.310Z,99.90
2019-03-24T02:12:34.952Z,99.90
2019-03-24T02:15:14.537Z,99.90
2019-03-24T02:17:45.123Z,99.90
2019-03-24T02:20:16.314Z,99.90
2019-03-24T02:22:47.248Z,99.90
2019-03-24T02:25:19.305Z,99.90
2019-03-24T02:27:49.898Z,99.90
2019-03-24T02:30:21.496Z,99.90
2019-03-24T02:32:51.982Z,99.90
2019-03-24T02:35:22.486Z,99.90
2019-03-24T02:37:52.989Z,99.90
2019-03-24T02:40:25.471Z,99.90
2019-03-24T02:42:56.133Z,99.90
2019-03-24T02:45:26.755Z,99.90
2019-03-24T02:47:59.754Z,99.90
2019-03-24T02:50:30.219Z,99.90
2019-03-24T02:53:00.714Z,99.90
2019-03-24T02:55:31.145Z,99.90
2019-03-24T02:58:01.758Z,99.90
2019-03-24T03:00:32.391Z,99.90
2019-03-24T03:03:03.363Z,99.90
2019-03-24T03:05:33.824Z,99.90
2019-03-24T03:08:04.388Z,99.90
2019-03-24T03:10:34.874Z,99.90
2019-03-24T03:13:05.932Z,99.90
2019-03-24T03:15:36.546Z,99.90
2019-03-24T03:18:07.127Z,99.90
2019-03-24T03:20:38.077Z,99.90
2019-03-24T03:23:09.043Z,99.90
2019-03-24T03:25:43.499Z,99.90
2019-03-24T03:28:14.692Z,99.90
2019-03-24T03:30:46.122Z,99.90
2019-03-24T03:33:17.050Z,99.90
2019-03-24T03:35:47.615Z,99.90
2019-03-24T03:38:18.128Z,99.90
2019-03-24T03:40:49.077Z,99.90
2019-03-24T03:43:21.609Z,99.90
2019-03-24T03:45:52.077Z,99.90
2019-03-24T03:48:24.073Z,99.90
2019-03-24T03:50:54.713Z,99.90
2019-03-24T03:53:25.209Z,99.90
2019-03-24T03:55:56.191Z,99.90
2019-03-24T03:58:28.117Z,99.90
2019-03-24T04:00:58.648Z,99.90
2019-03-24T04:03:29.301Z,99.90
2019-03-24T04:05:59.871Z,99.90
2019-03-24T04:08:33.965Z,99.90
2019-03-24T04:11:05.027Z,99.90
2019-03-24T04:13:35.519Z,99.90
2019-03-24T04:16:08.174Z,99.90
2019-03-24T04:18:38.715Z,99.90
2019-03-24T04:21:09.809Z,99.90
2019-03-24T04:23:41.772Z,99.90
2019-03-24T04:26:12.255Z,99.90
2019-03-24T04:28:44.546Z,99.90
2019-03-24T04:31:16.007Z,99.90
2019-03-24T04:33:46.407Z,99.90
2019-03-24T04:36:17.428Z,99.90
2019-03-24T04:38:48.766Z,99.90
2019-03-24T04:41:19.868Z,99.90
2019-03-24T04:43:50.428Z,99.90
2019-03-24T04:46:22.052Z,99.90
2019-03-24T04:48:52.637Z,99.90
2019-03-24T04:51:27.015Z,99.90
2019-03-24T04:54:01.150Z,99.90
2019-03-24T04:56:34.316Z,99.90
2019-03-24T04:59:04.989Z,99.90
2019-03-24T05:01:35.931Z,99.90
2019-03-24T05:04:06.601Z,99.90
2019-03-24T05:06:38.899Z,99.90
2019-03-24T05:09:09.943Z,99.90
2019-03-24T05:11:40.523Z,99.90
2019-03-24T05:14:11.994Z,99.90
2019-03-24T05:16:44.684Z,99.90
2019-03-24T05:19:15.851Z,99.90
2019-03-24T05:21:46.564Z,99.90
2019-03-24T05:24:17.202Z,99.90
2019-03-24T05:26:48.153Z,99.90
2019-03-24T05:29:18.757Z,99.90
2019-03-24T05:41:05.744Z,99.90
2019-03-24T05:43:36.288Z,99.90
2019-03-24T05:46:10.415Z,99.90
2019-03-24T05:48:41.384Z,99.90
2019-03-24T05:51:11.949Z,99.90
2019-03-24T05:53:43.208Z,99.90
2019-03-24T05:56:14.143Z,99.90
2019-03-24T05:58:44.777Z,99.90
2019-03-24T06:01:17.949Z,99.90
2019-03-24T06:03:47.599Z,99.90
2019-03-24T06:06:18.010Z,99.90
2019-03-24T06:08:48.470Z,99.90
2019-03-24T06:11:18.955Z,99.90
2019-03-24T06:13:49.528Z,99.90
2019-03-24T06:16:20.030Z,99.90
2019-03-24T06:18:50.552Z,99.90
2019-03-24T06:21:21.203Z,99.90
2019-03-24T06:23:51.678Z,99.90
2019-03-24T06:26:22.088Z,99.90
2019-03-24T06:28:52.457Z,99.90
2019-03-24T06:31:23.012Z,99.90
2019-03-24T06:33:53.538Z,99.90
2019-03-24T06:36:23.948Z,99.90
2019-03-24T06:38:55.156Z,99.40
2019-03-24T06:41:26.488Z,97.20
2019-03-24T06:43:56.973Z,98.60
2019-03-24T06:46:27.518Z,99.40
2019-03-24T06:48:58.824Z,99.90
2019-03-24T06:51:29.225Z,99.90
2019-03-24T06:53:59.694Z,99.90
2019-03-24T06:56:30.189Z,99.90
2019-03-24T06:59:00.679Z,98.70
2019-03-24T07:01:31.114Z,97.70
2019-03-24T07:04:03.794Z,97.40
2019-03-24T07:06:34.863Z,96.90
2019-03-24T07:09:07.304Z,93.80
2019-03-24T07:11:38.056Z,91.80
2019-03-24T07:14:08.718Z,91.20
2019-03-24T07:16:39.213Z,90.20
2019-03-24T07:19:09.777Z,89.10
2019-03-24T07:21:40.230Z,88.30
2019-03-24T07:24:10.757Z,89.80
2019-03-24T07:26:41.308Z,90.00
2019-03-24T07:29:11.760Z,90.00
2019-03-24T07:31:43.242Z,90.40
2019-03-24T07:34:13.745Z,88.90
2019-03-24T07:36:44.139Z,88.10
2019-03-24T07:39:14.531Z,90.00
2019-03-24T07:41:45.959Z,87.70
2019-03-24T07:44:21.999Z,88.00
2019-03-24T07:46:52.489Z,84.10
2019-03-24T07:49:22.939Z,84.00
2019-03-24T07:51:53.505Z,82.20
2019-03-24T07:54:23.932Z,81.00
2019-03-24T07:56:54.304Z,81.80
2019-03-24T07:59:24.789Z,81.80
2019-03-24T08:01:55.163Z,82.70
2019-03-24T08:04:25.743Z,81.40
2019-03-24T08:06:56.268Z,80.10
2019-03-24T08:09:27.056Z,78.90
2019-03-24T08:11:57.609Z,78.50
2019-03-24T08:14:28.045Z,77.90
2019-03-24T08:16:58.528Z,79.60
2019-03-24T08:19:29.354Z,79.00
2019-03-24T08:21:59.890Z,79.00
2019-03-24T08:24:31.360Z,78.40
2019-03-24T08:27:01.985Z,78.40
2019-03-24T08:29:33.445Z,77.30
2019-03-24T08:32:04.484Z,75.30
2019-03-24T08:34:35.095Z,74.40
2019-03-24T08:37:05.715Z,73.70
2019-03-24T08:39:36.221Z,72.10
2019-03-24T08:42:07.629Z,72.40
2019-03-24T08:44:38.728Z,71.30
2019-03-24T08:47:09.194Z,71.00
2019-03-24T08:49:39.692Z,71.20
2019-03-24T08:52:10.218Z,71.70
2019-03-24T08:54:40.741Z,72.00
2019-03-24T08:57:11.474Z,71.10
2019-03-24T08:59:45.838Z,70.00
2019-03-24T09:02:18.058Z,70.10
2019-03-24T09:04:48.479Z,68.10
2019-03-24T09:07:19.072Z,65.90
2019-03-24T09:09:49.577Z,61.90
2019-03-24T09:12:20.642Z,61.70
2019-03-24T09:14:55.321Z,61.10
2019-03-24T09:17:25.762Z,60.50
2019-03-24T09:19:56.321Z,61.50
2019-03-24T09:22:26.902Z,62.60
2019-03-24T09:24:57.456Z,63.20
2019-03-24T09:27:27.851Z,63.80
2019-03-24T09:29:58.407Z,63.30
2019-03-24T09:32:28.822Z,63.70
2019-03-24T09:34:59.285Z,62.90
2019-03-24T09:37:29.782Z,62.50
2019-03-24T09:40:00.381Z,62.20
2019-03-24T09:42:31.870Z,60.40
2019-03-24T09:45:02.357Z,60.00
2019-03-24T09:47:32.934Z,59.40
2019-03-24T09:50:03.905Z,59.10
2019-03-24T09:52:34.631Z,59.40
2019-03-24T09:55:07.748Z,58.80
2019-03-24T09:57:38.282Z,61.80
2019-03-24T10:00:10.075Z,63.70
2019-03-24T10:02:40.706Z,63.90
2019-03-24T10:05:11.320Z,63.50
2019-03-24T10:07:42.002Z,63.90
2019-03-24T10:10:12.664Z,61.90
2019-03-24T10:12:43.153Z,62.00
2019-03-24T10:15:13.816Z,61.70
2019-03-24T10:17:44.896Z,59.60
2019-03-24T10:20:15.829Z,60.70
2019-03-24T10:22:46.469Z,60.90
2019-03-24T10:25:16.857Z,61.50
2019-03-24T10:27:47.347Z,61.60
2019-03-24T10:30:18.439Z,60.00
2019-03-24T10:32:49.948Z,61.30
2019-03-24T10:35:20.470Z,61.00
2019-03-24T10:37:51.066Z,60.50
2019-03-24T10:40:28.702Z,59.10
2019-03-24T10:42:56.982Z,59.10
2019-03-24T10:45:27.672Z,59.10
2019-03-24T10:47:58.466Z,58.00
2019-03-24T10:50:28.988Z,57.80
2019-03-24T10:52:59.625Z,56.40
2019-03-24T10:55:30.953Z,55.40
2019-03-24T10:58:01.376Z,54.20
2019-03-24T11:00:41.436Z,53.70
2019-03-24T11:03:12.256Z,54.10
2019-03-24T11:05:43.640Z,54.90
2019-03-24T11:08:14.228Z,54.30
2019-03-24T11:10:44.935Z,52.90
2019-03-24T11:13:15.540Z,52.50
2019-03-24T11:15:46.314Z,52.00
2019-03-24T11:18:16.809Z,50.90
2019-03-24T11:20:47.311Z,50.90
2019-03-24T11:23:18.116Z,50.90
2019-03-24T11:25:48.697Z,51.10
2019-03-24T11:28:19.402Z,50.20
2019-03-24T11:30:49.867Z,51.10
2019-03-24T11:33:22.068Z,50.80
2019-03-24T11:35:52.638Z,50.70
2019-03-24T11:38:23.217Z,52.60
2019-03-24T11:40:53.776Z,52.10
2019-03-24T11:43:25.216Z,52.20
2019-03-24T11:45:55.696Z,51.60
2019-03-24T11:48:26.226Z,51.70
2019-03-24T11:50:56.728Z,51.80
2019-03-24T11:53:27.188Z,52.80
2019-03-24T11:55:57.627Z,53.60
2019-03-24T11:58:30.029Z,54.00
2019-03-24T12:01:00.802Z,54.20
2019-03-24T12:03:32.060Z,54.90
2019-03-24T12:06:13.638Z,56.10
2019-03-24T12:08:34.792Z,55.80
2019-03-24T12:11:05.987Z,55.30
2019-03-24T12:13:36.547Z,55.70
2019-03-24T12:16:07.196Z,54.70
2019-03-24T12:18:37.818Z,55.50
2019-03-24T12:21:08.470Z,55.70
2019-03-24T12:23:38.914Z,56.40
2019-03-24T12:26:09.432Z,57.00
2019-03-24T12:28:40.302Z,57.20
2019-03-24T12:31:10.910Z,58.10
2019-03-24T12:33:41.583Z,58.60
2019-03-24T12:36:12.078Z,58.50
2019-03-24T12:38:43.536Z,58.40
2019-03-24T12:41:14.035Z,59.40
2019-03-24T12:43:45.390Z,58.80
2019-03-24T12:46:15.920Z,59.10
2019-03-24T12:48:46.357Z,59.70
2019-03-24T12:51:17.516Z,58.50
2019-03-24T12:53:48.157Z,57.40
2019-03-24T12:56:19.704Z,57.40
2019-03-24T12:58:50.131Z,56.50
2019-03-24T13:01:21.011Z,56.10
2019-03-24T13:03:51.688Z,56.30
2019-03-24T13:06:23.903Z,56.80
2019-03-24T13:08:54.440Z,55.90
2019-03-24T13:11:24.954Z,56.70
2019-03-24T13:13:55.489Z,56.40
2019-03-24T13:16:25.987Z,56.60
2019-03-24T13:18:57.452Z,56.80
2019-03-24T13:21:27.976Z,56.90
2019-03-24T13:23:58.437Z,56.30
2019-03-24T13:26:30.343Z,57.10
2019-03-24T13:29:01.398Z,56.90
2019-03-24T13:31:31.978Z,56.90
2019-03-24T13:34:03.047Z,56.40
2019-03-24T13:36:33.645Z,56.80
2019-03-24T13:39:05.980Z,57.30
2019-03-24T13:41:36.381Z,57.30
2019-03-24T13:44:07.726Z,57.60
2019-03-24T13:49:14.765Z,59.30
2019-03-24T13:51:45.244Z,57.20
2019-03-24T13:54:15.808Z,57.70
2019-03-24T13:56:46.350Z,58.20
2019-03-24T13:59:16.895Z,58.20
2019-03-24T14:01:47.500Z,58.90
2019-03-24T14:04:17.970Z,57.90
2019-03-24T14:06:48.595Z,57.40
2019-03-24T14:09:20.964Z,58.00
2019-03-24T14:11:51.453Z,58.10
2019-03-24T14:14:22.157Z,57.70
2019-03-24T14:16:52.676Z,57.90
2019-03-24T14:19:23.378Z,58.60
2019-03-24T14:21:54.349Z,59.10
2019-03-24T14:24:25.365Z,59.40
2019-03-24T14:26:55.859Z,59.90
2019-03-24T14:29:27.259Z,60.10
2019-03-24T14:31:57.861Z,60.60
2019-03-24T14:34:29.105Z,59.80
2019-03-24T14:36:59.738Z,59.60
2019-03-24T14:39:30.250Z,59.30
2019-03-24T14:42:07.017Z,59.80
2019-03-24T14:44:38.348Z,59.30
2019-03-24T14:47:09.902Z,59.50
2019-03-24T14:49:40.621Z,59.20
2019-03-24T14:52:13.032Z,60.00
2019-03-24T14:54:46.412Z,59.70
2019-03-24T14:57:17.328Z,60.20
2019-03-24T14:59:48.012Z,60.60
2019-03-24T15:02:18.405Z,60.10
2019-03-24T15:04:48.918Z,60.60
2019-03-24T15:07:19.403Z,60.70
2019-03-24T15:09:50.008Z,60.50
2019-03-24T15:12:20.415Z,60.80
2019-03-24T15:14:51.658Z,61.30
2019-03-24T15:17:22.252Z,60.80
2019-03-24T15:19:54.620Z,61.60
2019-03-24T15:22:25.118Z,61.90
2019-03-24T15:24:55.551Z,62.30
2019-03-24T15:27:26.067Z,62.40
2019-03-24T15:29:56.658Z,62.40
2019-03-24T15:32:27.148Z,62.50
2019-03-24T15:34:58.483Z,63.10
2019-03-24T15:37:28.913Z,63.50
2019-03-24T15:39:59.380Z,63.70
2019-03-24T15:42:29.951Z,64.20
2019-03-24T15:45:01.268Z,64.60
2019-03-24T15:47:31.921Z,65.10
2019-03-24T15:50:02.418Z,65.20
2019-03-24T15:52:37.110Z,64.90
2019-03-24T15:55:09.031Z,65.00
2019-03-24T15:57:39.752Z,64.90
2019-03-24T16:00:11.732Z,65.00
2019-03-24T16:02:42.744Z,65.10
2019-03-24T16:05:14.282Z,65.20
2019-03-24T16:07:44.847Z,65.60
2019-03-24T16:10:15.467Z,65.70
2019-03-24T16:12:45.956Z,66.40
2019-03-24T16:15:16.501Z,66.60
2019-03-24T16:17:46.910Z,67.20
2019-03-24T16:20:17.371Z,67.70
2019-03-24T16:22:48.796Z,68.10
2019-03-24T16:25:19.319Z,68.60
2019-03-24T16:27:50.208Z,68.60
2019-03-24T16:30:23.238Z,69.40
2019-03-24T16:32:54.220Z,69.30
2019-03-24T16:35:24.799Z,68.80
2019-03-24T16:37:55.300Z,69.70
2019-03-24T16:40:25.868Z,70.80
2019-03-24T16:42:56.566Z,70.60
2019-03-24T16:45:28.352Z,70.90
2019-03-24T16:47:59.003Z,71.00
2019-03-24T16:50:30.635Z,71.50
2019-03-24T16:53:01.791Z,71.80
2019-03-24T16:55:32.634Z,72.60
2019-03-24T16:58:03.189Z,73.80
2019-03-24T17:00:34.197Z,74.60
2019-03-24T17:03:05.005Z,75.10
2019-03-24T17:05:35.682Z,76.30
2019-03-24T17:08:06.767Z,77.00
2019-03-24T17:10:38.062Z,78.10
2019-03-24T17:13:08.704Z,79.60
2019-03-24T17:15:46.231Z,80.50
2019-03-24T17:18:16.794Z,81.60
2019-03-24T17:20:49.036Z,82.00
2019-03-24T17:23:19.569Z,82.40
2019-03-24T17:25:53.409Z,83.50
2019-03-24T17:28:23.872Z,84.70
2019-03-24T17:30:54.488Z,85.80
2019-03-24T17:33:25.013Z,86.30
2019-03-24T17:35:55.687Z,87.20
2019-03-24T17:38:26.302Z,87.80
2019-03-24T17:40:56.870Z,88.30
2019-03-24T17:43:27.391Z,89.00
2019-03-24T17:45:58.738Z,89.40
2019-03-24T17:48:29.154Z,90.20
2019-03-24T17:50:59.729Z,90.60
2019-03-24T17:53:30.262Z,91.10
2019-03-24T17:56:00.798Z,91.60
2019-03-24T17:58:31.407Z,92.50
2019-03-24T18:01:03.021Z,92.60
2019-03-24T18:03:37.641Z,93.70
2019-03-24T18:06:09.155Z,94.10
2019-03-24T18:08:39.604Z,94.50
2019-03-24T18:11:10.182Z,94.50
2019-03-24T18:13:40.819Z,94.80
2019-03-24T18:16:11.398Z,95.80
2019-03-24T18:18:41.991Z,96.70
2019-03-24T18:21:13.463Z,96.80
2019-03-24T18:23:43.857Z,97.10
2019-03-24T18:26:14.374Z,97.50
2019-03-24T18:28:44.863Z,99.90
2019-03-24T18:31:15.560Z,99.90
2019-03-24T18:33:47.060Z,99.90
2019-03-24T18:36:17.654Z,99.90
2019-03-24T18:38:48.204Z,99.90
2019-03-24T18:41:19.277Z,99.90
2019-03-24T18:43:49.928Z,99.90
2019-03-24T18:46:22.416Z,99.90
2019-03-24T18:48:53.026Z,99.90
2019-03-24T18:51:23.522Z,99.90
2019-03-24T18:53:54.013Z,99.90
2019-03-24T18:56:24.532Z,99.90
2019-03-24T18:58:55.148Z,99.90
2019-03-24T19:01:25.743Z,99.90
2019-03-24T19:03:56.241Z,99.90
2019-03-24T19:06:26.805Z,99.90
2019-03-24T19:08:58.411Z,99.90
2019-03-24T19:11:29.085Z,99.90
2019-03-24T19:13:59.498Z,99.90
2019-03-24T19:16:30.547Z,99.90
2019-03-24T19:19:00.970Z,99.90
2019-03-24T19:21:31.501Z,99.90
2019-03-24T19:24:02.660Z,99.90
2019-03-24T19:26:33.214Z,99.90
2019-03-24T19:29:06.818Z,99.90
2019-03-24T19:31:38.342Z,99.90
2019-03-24T19:34:08.923Z,99.90
2019-03-24T19:36:40.518Z,99.90
2019-03-24T19:39:11.422Z,99.90
2019-03-24T19:41:41.902Z,99.90
2019-03-24T19:44:16.101Z,99.90
2019-03-24T19:46:47.702Z,99.90
2019-03-24T19:49:18.188Z,99.90
2019-03-24T19:51:48.662Z,99.90
2019-03-24T19:54:19.150Z,99.90
2019-03-24T19:56:51.613Z,99.90
2019-03-24T19:59:22.326Z,99.90
2019-03-24T20:01:53.337Z,99.90
2019-03-24T20:04:23.824Z,99.90
2019-03-24T20:06:57.413Z,99.90
2019-03-24T20:09:27.901Z,99.90
2019-03-24T20:11:58.383Z,99.90
2019-03-24T20:14:28.860Z,99.90
2019-03-24T20:17:01.136Z,99.90
2019-03-24T20:19:31.628Z,99.90
2019-03-24T20:22:02.148Z,99.90
2019-03-24T20:24:32.527Z,99.90
2019-03-24T20:27:03.947Z,99.90
2019-03-24T20:29:34.326Z,99.90
2019-03-24T20:32:04.872Z,99.90
2019-03-24T20:34:35.288Z,99.90
2019-03-24T20:37:05.918Z,99.90
2019-03-24T20:39:36.609Z,99.90
2019-03-24T20:42:07.426Z,99.90
2019-03-24T20:44:37.873Z,99.90
2019-03-24T20:47:09.273Z,99.90
2019-03-24T20:49:40.149Z,99.90
2019-03-24T20:52:11.648Z,99.90
2019-03-24T20:54:42.144Z,99.90
2019-03-24T20:57:12.615Z,99.90
2019-03-24T20:59:44.334Z,99.90
2019-03-24T21:02:14.911Z,99.90
2019-03-24T21:04:45.333Z,99.90
2019-03-24T21:07:15.961Z,99.90
2019-03-24T21:09:46.672Z,99.90
2019-03-24T21:12:17.434Z,99.90
2019-03-24T21:14:48.059Z,99.90
2019-03-24T21:17:18.626Z,99.90
2019-03-24T21:19:49.189Z,99.90
2019-03-24T21:22:20.525Z,99.90
2019-03-24T21:24:51.081Z,99.90
2019-03-24T21:27:21.550Z,99.90
2019-03-24T21:29:51.964Z,99.90
2019-03-24T21:32:22.360Z,99.90
2019-03-24T21:34:54.194Z,99.90
2019-03-24T21:37:25.624Z,99.90
2019-03-24T21:39:56.033Z,99.90
2019-03-24T21:42:26.500Z,99.90
2019-03-24T21:44:56.891Z,99.90
2019-03-24T21:47:28.648Z,99.90
2019-03-24T21:49:59.104Z,99.90
2019-03-24T21:52:29.774Z,99.90
2019-03-24T21:55:00.245Z,99.90
2019-03-24T21:57:30.754Z,99.90
2019-03-24T22:00:01.301Z,99.90
2019-03-24T22:02:31.945Z,99.90
2019-03-24T22:05:02.395Z,99.90
2019-03-24T22:07:32.952Z,99.90
2019-03-24T22:10:04.285Z,99.90
2019-03-24T22:12:34.687Z,99.90
2019-03-24T22:15:08.279Z,99.90
2019-03-24T22:17:40.963Z,99.90
2019-03-24T22:20:13.921Z,99.90
2019-03-24T22:22:44.439Z,99.90
2019-03-24T22:25:14.881Z,99.90
2019-03-24T22:27:45.364Z,99.90
2019-03-24T22:30:17.461Z,99.90
2019-03-24T22:32:47.961Z,99.90
2019-03-24T22:35:18.448Z,99.90
2019-03-24T22:37:48.982Z,99.90
2019-03-24T22:40:19.431Z,99.90
2019-03-24T22:42:49.835Z,99.90
2019-03-24T22:45:21.408Z,99.90
2019-03-24T22:47:53.287Z,99.90
2019-03-24T22:50:24.882Z,99.90
2019-03-24T22:52:55.374Z,99.90
2019-03-24T22:55:25.891Z,99.90
2019-03-24T22:57:56.482Z,99.90
2019-03-24T23:00:28.747Z,99.90
2019-03-24T23:02:59.399Z,99.90
2019-03-24T23:05:29.933Z,99.90
2019-03-24T23:08:00.584Z,99.90
2019-03-24T23:10:31.178Z,99.90
2019-03-24T23:13:01.771Z,99.90
2019-03-24T23:15:32.184Z,99.90
2019-03-24T23:18:02.728Z,99.90
2019-03-24T23:20:33.288Z,99.90
2019-03-24T23:23:03.846Z,99.90
2019-03-24T23:25:34.374Z,99.90
2019-03-24T23:28:05.150Z,99.90
2019-03-24T23:30:35.513Z,99.90
2019-03-24T23:33:06.140Z,99.90
2019-03-24T23:35:36.846Z,99.90
2019-03-24T23:38:07.350Z,99.90
2019-03-24T23:40:37.902Z,99.90
2019-03-24T23:43:10.821Z,99.90
2019-03-24T23:45:41.301Z,99.90
2019-03-24T23:48:12.587Z,99.90
2019-03-24T23:50:43.130Z,99.90
2019-03-24T23:53:13.760Z,99.90
2019-03-24T23:55:44.379Z,99.90
2019-03-24T23:58:14.948Z,99.90
